Time;durP1;ratioP1;P1;durP2;ratioP2;P2;SDS_P1;SDS_P2;PMS_P1;PMS_P2;Temp;Humidity;BMP_temperature;BMP_pressure;BME280_temperature;BME280_humidity;BME280_pressure;Samples;Min_cycle;Max_cycle;Signal;HPM_P1;HPM_P2
2023/05/08 00:01:16;;;;;;;8.93;4.20;;;;;;;3.94;80.34;101534.84;4233673;28;20294;-68
2023/05/08 00:03:43;;;;;;;6.57;3.60;;;;;;;3.88;80.27;101529.78;4222682;28;20243;-65
2023/05/08 00:06:10;;;;;;;7.50;3.83;;;;;;;3.81;80.62;101532.75;4231676;28;21347;-67
2023/05/08 00:08:36;;;;;;;6.77;3.23;;;;;;;3.83;80.55;101534.50;4221405;28;24940;-67
2023/05/08 00:11:03;;;;;;;6.63;3.50;;;;;;;3.76;80.86;101533.94;4225562;28;25662;-67
2023/05/08 00:13:29;;;;;;;8.03;4.20;;;;;;;3.66;81.35;101528.19;4232335;28;20241;-67
2023/05/08 00:15:56;;;;;;;7.00;4.23;;;;;;;3.61;81.36;101535.56;4225330;28;20303;-67
2023/05/08 00:18:22;;;;;;;9.23;4.77;;;;;;;3.62;81.89;101540.84;4225192;28;20270;-68
2023/05/08 00:20:49;;;;;;;9.17;4.23;;;;;;;3.73;81.35;101531.41;4226729;28;20471;-66
2023/05/08 00:23:15;;;;;;;9.13;4.30;;;;;;;3.68;80.92;101525.41;4236489;28;20342;-69
2023/05/08 00:25:42;;;;;;;7.20;4.00;;;;;;;3.64;81.62;101540.78;4227568;28;20269;-66
2023/05/08 00:28:08;;;;;;;8.70;4.20;;;;;;;3.61;81.59;101541.78;4225515;28;23169;-66
2023/05/08 00:30:35;;;;;;;10.10;4.30;;;;;;;3.69;81.38;101546.75;4238982;28;20694;-68
2023/05/08 00:33:01;;;;;;;9.40;4.37;;;;;;;3.57;81.43;101540.19;4236177;28;20338;-67
2023/05/08 00:35:28;;;;;;;8.83;4.30;;;;;;;3.53;82.23;101538.63;4231141;28;20238;-65
2023/05/08 00:37:55;;;;;;;7.93;4.40;;;;;;;3.54;81.97;101547.50;4222068;28;20517;-66
2023/05/08 00:40:21;;;;;;;9.93;4.93;;;;;;;3.52;81.86;101538.66;4228092;28;20250;-66
2023/05/08 00:42:48;;;;;;;10.50;5.13;;;;;;;3.40;82.51;101546.38;4231584;28;20315;-65
2023/05/08 00:45:14;;;;;;;9.10;4.90;;;;;;;3.40;82.22;101549.03;4241401;28;20228;-66
2023/05/08 00:47:41;;;;;;;12.20;4.70;;;;;;;3.33;82.86;101551.13;4227932;28;21475;-65
2023/05/08 00:50:09;;;;;;;7.67;4.10;;;;;;;3.36;82.41;101543.91;4254344;28;22504;-64
2023/05/08 00:52:36;;;;;;;8.40;4.53;;;;;;;3.37;82.52;101546.50;4224853;28;21644;-65
2023/05/08 00:55:04;;;;;;;10.67;4.63;;;;;;;3.33;82.46;101556.50;4230502;28;21788;-66
2023/05/08 00:57:33;;;;;;;8.07;3.83;;;;;;;3.26;82.33;101552.38;4230886;28;20542;-66
2023/05/08 01:00:00;;;;;;;8.50;3.77;;;;;;;3.26;82.54;101564.91;4220823;28;20238;-66
2023/05/08 01:02:30;;;;;;;12.47;5.80;;;;;;;3.17;82.63;101574.22;4211802;28;21058;-66
2023/05/08 01:04:56;;;;;;;9.50;5.03;;;;;;;3.20;82.86;101581.25;4223154;28;20265;-66
2023/05/08 01:07:23;;;;;;;8.03;4.47;;;;;;;3.15;82.81;101581.44;4238658;28;22169;-65
2023/05/08 01:09:49;;;;;;;8.67;4.93;;;;;;;3.12;83.19;101582.47;4231440;28;20235;-65
2023/05/08 01:12:27;;;;;;;10.77;4.50;;;;;;;3.13;83.17;101583.31;4235197;28;20238;-67
2023/05/08 01:15:05;;;;;;;10.03;4.60;;;;;;;3.24;82.47;101588.19;4213458;28;20236;-65
2023/05/08 01:17:59;;;;;;;10.17;4.50;;;;;;;3.16;82.57;101592.06;4213583;28;20242;-67
2023/05/08 01:20:44;;;;;;;7.47;4.60;;;;;;;3.19;82.93;101591.06;4231022;28;20234;-66
2023/05/08 01:23:32;;;;;;;10.00;4.60;;;;;;;3.10;82.96;101587.00;4205669;28;20303;-65
2023/05/08 01:26:18;;;;;;;11.13;4.97;;;;;;;3.11;83.47;101591.44;4227945;28;20232;-67
2023/05/08 01:28:53;;;;;;;12.70;6.27;;;;;;;3.05;83.28;101582.81;4224477;28;20650;-67
2023/05/08 01:31:38;;;;;;;15.43;6.00;;;;;;;2.99;83.60;101592.84;4222844;28;20227;-66
2023/05/08 01:34:07;;;;;;;10.00;4.77;;;;;;;2.97;83.41;101597.41;4230349;28;20270;-65
2023/05/08 01:37:02;;;;;;;8.73;4.90;;;;;;;2.90;83.98;101595.94;4228905;28;20355;-67
2023/05/08 01:39:38;;;;;;;9.80;5.20;;;;;;;2.90;83.68;101590.59;4234100;28;25509;-64
2023/05/08 01:42:11;;;;;;;9.60;5.27;;;;;;;2.88;84.03;101594.28;4224354;28;21348;-67
2023/05/08 01:44:43;;;;;;;15.23;6.60;;;;;;;2.82;83.76;101593.63;4223334;28;21461;-66
2023/05/08 01:47:10;;;;;;;17.97;8.47;;;;;;;2.79;83.68;101600.91;4210366;28;21132;-67
2023/05/08 01:50:00;;;;;;;15.03;6.27;;;;;;;2.81;83.75;101597.25;4217242;28;20293;-66
2023/05/08 01:52:32;;;;;;;10.67;5.67;;;;;;;2.65;84.27;101601.53;4216280;28;20921;-65
2023/05/08 01:55:02;;;;;;;12.23;5.90;;;;;;;2.54;84.64;101599.31;4212849;28;20617;-65
2023/05/08 01:57:32;;;;;;;9.17;5.20;;;;;;;2.53;84.85;101606.44;4221476;28;20243;-65
2023/05/08 02:00:00;;;;;;;10.27;5.17;;;;;;;2.56;84.67;101597.47;4226813;28;20239;-65
2023/05/08 02:02:28;;;;;;;8.87;4.80;;;;;;;2.61;84.29;101603.47;4228764;28;20233;-66
2023/05/08 02:04:56;;;;;;;8.40;4.50;;;;;;;2.61;84.07;101599.91;4225210;28;20296;-66
2023/05/08 02:07:23;;;;;;;10.10;5.30;;;;;;;2.52;84.24;101604.75;4239326;28;20270;-66
2023/05/08 02:09:50;;;;;;;9.67;5.23;;;;;;;2.48;84.42;101603.13;4222650;28;20635;-66
2023/05/08 02:12:17;;;;;;;8.03;4.50;;;;;;;2.45;84.16;101605.94;4220445;28;20298;-66
2023/05/08 02:14:46;;;;;;;14.17;4.67;;;;;;;2.36;84.45;101598.31;4233300;28;20460;-66
2023/05/08 02:17:15;;;;;;;10.63;5.37;;;;;;;2.35;84.50;101610.78;4225477;28;20285;-65
2023/05/08 02:19:43;;;;;;;8.80;5.03;;;;;;;2.39;84.64;101611.53;4214177;28;20238;-66
2023/05/08 02:22:09;;;;;;;10.93;5.40;;;;;;;2.40;84.37;101610.59;4227152;28;20298;-65
2023/05/08 02:24:37;;;;;;;11.47;5.33;;;;;;;2.37;84.44;101603.59;4236575;28;20302;-67
2023/05/08 02:27:04;;;;;;;9.87;5.60;;;;;;;2.30;84.85;101602.09;4244226;28;20694;-66
2023/05/08 02:29:31;;;;;;;9.87;4.70;;;;;;;2.32;84.70;101607.38;4225865;28;20231;-67
2023/05/08 02:32:00;;;;;;;9.93;4.87;;;;;;;2.30;84.56;101602.09;4214760;28;20244;-67
2023/05/08 02:34:27;;;;;;;10.47;5.23;;;;;;;2.32;84.70;101600.25;4215551;28;20239;-66
2023/05/08 02:36:53;;;;;;;9.67;4.80;;;;;;;2.30;84.39;101610.13;4223312;28;21859;-67
2023/05/08 02:39:24;;;;;;;9.37;5.30;;;;;;;2.28;84.63;101613.81;4211766;28;20274;-66
2023/05/08 02:41:51;;;;;;;10.03;5.27;;;;;;;2.28;84.70;101606.63;4218944;28;20683;-66
2023/05/08 02:44:18;;;;;;;12.03;6.00;;;;;;;2.23;85.38;101603.31;4219298;28;20235;-68
2023/05/08 02:46:52;;;;;;;12.10;6.60;;;;;;;2.22;85.87;101602.44;4232211;28;20357;-65
2023/05/08 02:49:32;;;;;;;11.70;6.20;;;;;;;2.20;86.36;101603.41;4229216;28;21834;-68
2023/05/08 02:52:10;;;;;;;14.67;7.10;;;;;;;2.20;86.76;101598.06;4216198;28;21799;-66
2023/05/08 02:54:55;;;;;;;13.10;7.07;;;;;;;2.21;86.39;101606.06;4233937;28;20502;-64
2023/05/08 02:57:36;;;;;;;15.10;6.90;;;;;;;2.22;86.29;101597.09;4238039;28;23737;-68
2023/05/08 03:00:26;;;;;;;14.97;6.73;;;;;;;2.22;86.15;101604.22;4222171;28;20561;-65
2023/05/08 03:03:11;;;;;;;11.27;6.53;;;;;;;2.21;86.09;101603.38;4211359;28;20327;-66
2023/05/08 03:05:42;;;;;;;10.93;5.77;;;;;;;2.26;85.73;101604.97;4217662;28;20255;-66
2023/05/08 03:08:18;;;;;;;12.13;6.63;;;;;;;2.24;85.89;101606.84;4209833;28;20550;-66
2023/05/08 03:10:48;;;;;;;11.97;6.30;;;;;;;2.24;85.35;101609.50;4204510;28;22761;-65
2023/05/08 03:13:15;;;;;;;12.30;6.57;;;;;;;2.17;85.68;101606.25;4277096;28;20300;-66
2023/05/08 03:15:45;;;;;;;12.77;6.63;;;;;;;2.21;85.63;101618.53;4203826;28;26121;-67
2023/05/08 03:18:15;;;;;;;12.40;6.57;;;;;;;2.16;85.71;101623.19;4230872;28;20692;-67
2023/05/08 03:20:47;;;;;;;13.30;6.70;;;;;;;2.20;85.65;101620.34;4213911;28;20250;-67
2023/05/08 03:23:14;;;;;;;18.00;6.77;;;;;;;2.23;85.81;101622.00;4228196;28;20310;-67
2023/05/08 03:25:42;;;;;;;11.37;6.50;;;;;;;2.23;86.06;101627.34;4209036;28;20241;-64
2023/05/08 03:28:09;;;;;;;13.30;7.20;;;;;;;2.35;85.40;101631.31;4241375;28;21146;-67
2023/05/08 03:30:36;;;;;;;18.40;9.37;;;;;;;2.40;85.60;101640.00;4231515;28;20230;-67
2023/05/08 03:33:04;;;;;;;13.63;7.40;;;;;;;2.29;86.67;101637.78;4231781;28;20344;-67
2023/05/08 03:35:31;;;;;;;12.33;6.50;;;;;;;2.35;86.32;101636.66;4212079;28;20228;-67
2023/05/08 03:37:58;;;;;;;13.77;7.33;;;;;;;2.46;86.01;101638.88;4230518;28;23679;-66
2023/05/08 03:40:26;;;;;;;13.37;7.43;;;;;;;2.41;85.79;101640.88;4240637;28;20302;-67
2023/05/08 03:42:53;;;;;;;13.53;6.33;;;;;;;2.45;85.67;101635.34;4214744;28;21900;-65
2023/05/08 03:45:19;;;;;;;14.60;6.87;;;;;;;2.33;86.10;101610.00;4237306;28;20241;-66
2023/05/08 03:47:46;;;;;;;14.53;7.87;;;;;;;2.52;86.05;101634.16;4219250;28;20254;-67
2023/05/08 03:50:14;;;;;;;16.30;9.10;;;;;;;2.58;86.87;101634.81;4216641;28;20232;-66
2023/05/08 03:52:41;;;;;;;15.63;8.10;;;;;;;2.65;86.69;101631.78;4236449;28;20607;-65
2023/05/08 03:55:08;;;;;;;16.57;8.73;;;;;;;2.72;87.00;101637.75;4244693;28;20362;-66
2023/05/08 03:57:44;;;;;;;20.93;10.37;;;;;;;2.79;86.78;101638.34;4230254;28;20929;-63
2023/05/08 04:00:48;;;;;;;21.30;10.07;;;;;;;2.85;87.22;101636.25;4239582;28;21155;-66
2023/05/08 04:03:24;;;;;;;18.43;8.70;;;;;;;2.98;87.30;101643.75;4237415;28;20241;-68
2023/05/08 04:05:59;;;;;;;14.60;7.97;;;;;;;3.15;86.70;101638.50;4210700;28;21666;-67
2023/05/08 04:08:31;;;;;;;13.67;8.20;;;;;;;3.24;85.89;101642.59;4206853;28;20306;-67
2023/05/08 04:11:17;;;;;;;15.17;8.97;;;;;;;3.40;85.84;101645.41;4218046;28;20232;-66
2023/05/08 04:13:49;;;;;;;15.80;8.17;;;;;;;3.56;85.81;101650.91;4227922;28;20228;-67
2023/05/08 04:16:20;;;;;;;15.60;8.70;;;;;;;3.48;85.48;101658.44;4212937;28;20281;-68
2023/05/08 04:18:48;;;;;;;18.50;9.03;;;;;;;3.48;85.75;101658.44;4245610;28;20263;-69
2023/05/08 04:21:19;;;;;;;17.63;8.80;;;;;;;3.53;85.86;101664.47;4239774;28;21905;-66
2023/05/08 04:23:49;;;;;;;15.50;8.83;;;;;;;3.64;85.63;101658.59;4199183;28;20294;-67
2023/05/08 04:26:17;;;;;;;14.77;8.40;;;;;;;3.79;84.97;101662.34;4211577;28;20236;-66
2023/05/08 04:28:45;;;;;;;16.87;8.83;;;;;;;3.88;84.42;101661.91;4239774;28;20235;-68
2023/05/08 04:31:13;;;;;;;21.00;8.80;;;;;;;4.02;83.87;101666.59;4237621;28;20416;-67
2023/05/08 04:33:42;;;;;;;18.57;8.60;;;;;;;4.16;83.74;101668.59;4233549;28;21757;-66
2023/05/08 04:36:12;;;;;;;16.80;8.40;;;;;;;4.31;82.85;101668.78;4238042;28;20294;-68
2023/05/08 04:38:39;;;;;;;18.47;8.10;;;;;;;4.43;82.17;101669.03;4232798;28;20299;-67
2023/05/08 04:41:06;;;;;;;14.30;7.73;;;;;;;4.55;81.54;101664.00;4225801;28;21487;-67
2023/05/08 04:43:33;;;;;;;14.40;7.83;;;;;;;4.63;81.07;101677.91;4235386;28;20245;-67
2023/05/08 04:46:00;;;;;;;14.70;7.30;;;;;;;4.78;80.40;101673.53;4230545;28;20232;-66
2023/05/08 04:48:27;;;;;;;11.60;6.40;;;;;;;4.92;79.88;101678.19;4230542;28;20331;-67
2023/05/08 04:50:53;;;;;;;14.67;6.53;;;;;;;5.14;78.95;101677.91;4235185;28;21724;-70
2023/05/08 04:53:20;;;;;;;13.77;6.63;;;;;;;5.20;78.23;101674.06;4238330;28;20254;-67
2023/05/08 04:55:46;;;;;;;14.80;5.73;;;;;;;5.38;77.37;101682.94;4231781;28;20392;-68
2023/05/08 04:58:13;;;;;;;12.83;5.73;;;;;;;5.48;76.28;101686.88;4217308;28;21128;-67
2023/05/08 05:00:39;;;;;;;11.87;5.50;;;;;;;5.57;75.10;101684.63;4231233;28;23298;-69
2023/05/08 05:03:06;;;;;;;9.90;4.73;;;;;;;5.81;74.43;101687.75;4224323;28;22677;-70
2023/05/08 05:05:34;;;;;;;8.70;4.90;;;;;;;5.89;74.61;101690.91;4235471;28;20239;-66
2023/05/08 05:08:04;;;;;;;10.03;5.07;;;;;;;6.00;74.43;101695.69;4219243;28;20285;-66
2023/05/08 05:10:30;;;;;;;8.47;4.27;;;;;;;6.10;72.97;101693.34;4241713;28;20254;-67
2023/05/08 05:12:57;;;;;;;10.17;4.73;;;;;;;6.16;72.86;101688.50;4229331;28;20253;-67
2023/05/08 05:15:23;;;;;;;7.83;4.03;;;;;;;6.44;71.60;101694.09;4237318;28;20293;-67
2023/05/08 05:17:50;;;;;;;9.50;3.90;;;;;;;6.54;70.81;101700.66;4247766;28;20258;-67
2023/05/08 05:20:16;;;;;;;10.23;3.67;;;;;;;6.72;70.04;101697.84;4238737;28;20363;-65
2023/05/08 05:22:43;;;;;;;6.93;3.17;;;;;;;6.73;69.99;101702.28;4206748;28;23834;-68
2023/05/08 05:25:10;;;;;;;7.73;3.03;;;;;;;6.73;69.01;101695.06;4226644;28;20953;-68
2023/05/08 05:27:37;;;;;;;6.73;3.40;;;;;;;7.01;67.99;101708.69;4253297;28;20231;-68
2023/05/08 05:30:04;;;;;;;5.37;2.93;;;;;;;7.23;67.78;101713.66;4285017;28;20247;-68
2023/05/08 05:32:31;;;;;;;7.57;2.90;;;;;;;7.35;66.62;101704.78;4219191;28;22093;-66
2023/05/08 05:34:57;;;;;;;5.73;2.60;;;;;;;7.46;65.47;101712.22;4228424;28;20231;-69
2023/05/08 05:37:24;;;;;;;6.70;2.33;;;;;;;7.63;64.17;101715.69;4231380;28;23152;-69
2023/05/08 05:39:50;;;;;;;3.87;2.00;;;;;;;7.81;63.33;101702.88;4230122;28;20236;-69
2023/05/08 05:42:17;;;;;;;4.17;2.20;;;;;;;8.01;61.67;101715.06;4229526;28;23430;-66
2023/05/08 05:44:43;;;;;;;4.87;2.23;;;;;;;8.10;60.44;101714.47;4243925;28;20838;-65
2023/05/08 05:47:10;;;;;;;3.67;1.97;;;;;;;8.45;59.74;101705.03;4266026;28;20359;-67
2023/05/08 05:49:38;;;;;;;2.83;1.80;;;;;;;8.88;58.24;101705.69;4238403;28;20266;-64
2023/05/08 05:52:05;;;;;;;3.70;2.00;;;;;;;10.19;54.37;101705.50;4228162;28;20230;-65
2023/05/08 05:54:32;;;;;;;5.00;1.63;;;;;;;10.86;50.45;101714.09;4251258;28;21763;-68
2023/05/08 05:56:59;;;;;;;2.50;1.43;;;;;;;11.37;49.70;101716.41;4239869;28;20254;-64
2023/05/08 05:59:25;;;;;;;3.90;1.77;;;;;;;12.27;47.37;101717.44;4223732;28;22670;-67
2023/05/08 06:01:52;;;;;;;2.93;1.50;;;;;;;12.67;45.82;101708.63;4243922;28;20747;-67
2023/05/08 06:04:19;;;;;;;3.00;1.50;;;;;;;13.01;44.49;101704.88;4230220;28;21102;-65
2023/05/08 06:06:46;;;;;;;3.10;1.70;;;;;;;13.25;44.23;101706.47;4272946;28;20311;-66
2023/05/08 06:09:12;;;;;;;3.53;2.03;;;;;;;13.70;43.44;101710.75;4250672;28;25248;-67
2023/05/08 06:11:39;;;;;;;3.17;1.70;;;;;;;14.33;41.55;101718.69;4243016;28;20273;-66
2023/05/08 06:14:06;;;;;;;4.33;1.63;;;;;;;15.47;39.51;101717.22;4233612;28;20235;-65
2023/05/08 06:16:34;;;;;;;4.10;1.90;;;;;;;16.22;37.90;101719.06;4225286;28;20342;-68
2023/05/08 06:19:01;;;;;;;3.07;1.77;;;;;;;16.16;38.81;101710.47;4234138;28;21407;-68
2023/05/08 06:21:27;;;;;;;3.17;1.90;;;;;;;16.90;35.83;101704.00;4226467;28;20240;-66
2023/05/08 06:23:54;;;;;;;3.83;2.10;;;;;;;16.46;37.24;101719.31;4225459;28;21793;-68
2023/05/08 06:26:21;;;;;;;3.80;1.97;;;;;;;16.51;36.67;101707.94;4231188;28;20238;-67
2023/05/08 06:28:49;;;;;;;3.67;2.03;;;;;;;17.90;35.06;101709.13;4234875;28;20246;-67
2023/05/08 06:31:15;;;;;;;4.13;2.00;;;;;;;17.33;35.10;101707.81;4225803;28;20236;-67
2023/05/08 06:33:42;;;;;;;3.50;1.50;;;;;;;18.02;33.23;101709.72;4229055;28;20588;-65
2023/05/08 06:36:09;;;;;;;3.73;2.00;;;;;;;18.24;32.88;101707.38;4234611;28;21364;-67
2023/05/08 06:38:35;;;;;;;4.00;1.73;;;;;;;18.05;33.02;101706.66;4225971;28;20572;-65
2023/05/08 06:41:02;;;;;;;4.40;2.00;;;;;;;17.92;32.46;101700.72;4230569;28;22250;-67
2023/05/08 06:43:29;;;;;;;9.63;2.73;;;;;;;18.48;32.52;101704.72;4218302;28;20281;-67
2023/05/08 06:45:56;;;;;;;4.17;2.10;;;;;;;17.50;34.40;101707.88;4232231;28;20246;-67
2023/05/08 06:48:27;;;;;;;3.90;2.30;;;;;;;19.47;31.37;101698.34;4236796;28;20282;-67
2023/05/08 06:50:55;;;;;;;6.03;2.60;;;;;;;20.22;30.79;101705.28;4232898;28;20235;-68
2023/05/08 06:53:21;;;;;;;3.50;2.43;;;;;;;19.30;31.62;101697.53;4237769;28;21934;-68
2023/05/08 06:55:48;;;;;;;5.73;2.33;;;;;;;18.44;31.24;101702.47;4236530;28;20313;-65
2023/05/08 06:58:14;;;;;;;5.00;2.00;;;;;;;18.41;31.37;101700.94;4251830;28;20417;-65
2023/05/08 07:00:41;;;;;;;4.80;2.20;;;;;;;19.59;29.34;101705.19;4229443;28;20236;-67
2023/05/08 07:03:08;;;;;;;8.90;1.87;;;;;;;18.49;32.07;101705.56;4217535;28;20236;-66
2023/05/08 07:05:35;;;;;;;6.43;1.70;;;;;;;19.38;29.88;101697.53;4235271;28;20228;-66
2023/05/08 07:08:01;;;;;;;3.00;1.90;;;;;;;21.76;26.80;101701.59;4212311;28;20279;-64
2023/05/08 07:10:28;;;;;;;7.03;2.17;;;;;;;21.61;26.90;101704.34;4228731;28;20362;-67
2023/05/08 07:12:54;;;;;;;4.00;1.63;;;;;;;22.08;25.85;101705.00;4243122;28;20239;-68
2023/05/08 07:15:21;;;;;;;5.67;1.87;;;;;;;22.44;26.27;101711.56;4239299;28;20231;-66
2023/05/08 07:17:52;;;;;;;11.13;3.83;;;;;;;22.79;25.16;101712.59;4226436;28;20351;-68
2023/05/08 07:20:20;;;;;;;8.60;4.90;;;;;;;23.52;24.62;101708.72;4226900;28;20397;-67
2023/05/08 07:22:47;;;;;;;4.23;2.20;;;;;;;23.50;23.99;101705.31;4243845;28;21477;-65
2023/05/08 07:25:13;;;;;;;2.27;1.67;;;;;;;23.15;24.59;101710.78;4220460;28;21298;-66
2023/05/08 07:27:40;;;;;;;4.27;1.67;;;;;;;22.31;24.93;101718.63;4223799;28;20306;-65
2023/05/08 07:30:07;;;;;;;2.30;1.60;;;;;;;22.03;26.02;101723.16;4231745;28;20424;-65
2023/05/08 07:32:34;;;;;;;3.50;1.80;;;;;;;19.83;27.83;101719.03;4232099;28;21582;-67
2023/05/08 07:35:02;;;;;;;2.73;1.53;;;;;;;22.61;25.40;101714.97;4211960;28;20244;-63
2023/05/08 07:37:29;;;;;;;2.57;1.73;;;;;;;22.15;26.17;101713.34;4222644;28;20328;-66
2023/05/08 07:39:55;;;;;;;2.37;1.80;;;;;;;21.29;27.26;101713.78;4231284;28;21168;-64
2023/05/08 07:42:22;;;;;;;4.37;1.63;;;;;;;20.82;28.00;101713.00;4222772;28;20542;-66
2023/05/08 07:44:48;;;;;;;5.07;1.70;;;;;;;19.41;29.37;101713.63;4229434;28;20236;-64
2023/05/08 07:47:20;;;;;;;5.30;2.00;;;;;;;17.72;31.53;101712.78;4212282;28;20309;-64
2023/05/08 07:49:47;;;;;;;5.07;1.70;;;;;;;17.08;32.47;101718.56;4237047;28;20243;-66
2023/05/08 07:52:14;;;;;;;5.17;1.73;;;;;;;16.80;34.07;101709.56;4231672;28;20258;-64
2023/05/08 07:54:40;;;;;;;5.20;1.70;;;;;;;16.85;34.13;101714.56;4236454;28;21463;-65
2023/05/08 07:57:07;;;;;;;7.17;1.90;;;;;;;16.78;34.05;101708.84;4225741;28;20416;-65
2023/05/08 07:59:33;;;;;;;5.70;2.00;;;;;;;17.22;33.12;101708.06;4229558;28;20248;-65
2023/05/08 08:02:00;;;;;;;2.47;1.60;;;;;;;16.90;33.15;101706.75;4223970;28;21206;-66
2023/05/08 08:04:26;;;;;;;8.23;2.27;;;;;;;16.58;35.06;101722.69;4235325;28;20241;-67
2023/05/08 08:06:54;;;;;;;6.77;2.00;;;;;;;17.04;33.06;101708.94;4233044;28;20267;-65
2023/05/08 08:09:20;;;;;;;7.23;2.50;;;;;;;16.93;34.12;101714.69;4230935;28;21098;-65
2023/05/08 08:11:47;;;;;;;4.03;1.97;;;;;;;17.04;33.64;101719.03;4236215;28;21631;-66
2023/05/08 08:14:13;;;;;;;7.70;2.20;;;;;;;16.90;33.70;101715.81;4232372;28;20463;-67
2023/05/08 08:16:41;;;;;;;4.10;2.03;;;;;;;15.94;35.07;101719.06;4215136;28;20235;-66
2023/05/08 08:19:08;;;;;;;4.73;1.80;;;;;;;15.68;36.10;101715.13;4213284;28;21047;-66
2023/05/08 08:21:34;;;;;;;5.67;1.90;;;;;;;15.29;36.46;101714.41;4241040;28;21754;-66
2023/05/08 08:24:01;;;;;;;5.27;1.90;;;;;;;15.31;36.48;101709.63;4235004;28;20533;-64
2023/05/08 08:26:27;;;;;;;4.20;2.33;;;;;;;15.48;36.14;101716.22;4229705;28;20736;-64
2023/05/08 08:28:54;;;;;;;3.93;2.10;;;;;;;15.62;36.00;101704.81;4230917;28;20314;-64
2023/05/08 08:31:20;;;;;;;4.40;1.87;;;;;;;16.12;36.31;101697.25;4227687;28;22149;-64
2023/05/08 08:33:47;;;;;;;5.00;1.83;;;;;;;15.95;34.88;101701.69;4228157;28;20325;-67
2023/05/08 08:36:14;;;;;;;4.13;1.83;;;;;;;15.65;35.06;101700.91;4232144;28;21115;-67
2023/05/08 08:38:41;;;;;;;2.83;1.87;;;;;;;15.79;35.43;101696.81;4230863;28;20235;-68
2023/05/08 08:41:07;;;;;;;4.30;2.10;;;;;;;14.76;36.11;101694.81;4234785;28;21001;-65
2023/05/08 08:43:34;;;;;;;9.13;2.10;;;;;;;15.19;35.39;101689.84;4246867;28;20274;-66
2023/05/08 08:46:11;;;;;;;5.83;2.40;;;;;;;15.73;35.54;101691.97;4232683;28;20308;-67
2023/05/08 08:48:43;;;;;;;3.40;1.70;;;;;;;15.30;34.72;101689.69;4232962;28;20237;-66
2023/05/08 08:51:30;;;;;;;4.10;2.30;;;;;;;15.68;35.92;101696.03;4229413;28;21771;-67
2023/05/08 08:54:11;;;;;;;5.17;1.97;;;;;;;15.88;34.74;101695.94;4227915;28;20227;-66
2023/05/08 08:56:41;;;;;;;9.17;2.07;;;;;;;15.11;35.28;101692.44;4228640;28;21645;-65
2023/05/08 08:59:10;;;;;;;5.03;1.80;;;;;;;15.24;35.39;101687.56;4232351;28;20990;-64
2023/05/08 09:01:38;;;;;;;3.57;1.87;;;;;;;14.80;35.71;101682.59;4233139;28;20235;-65
2023/05/08 09:04:05;;;;;;;4.00;1.90;;;;;;;14.83;35.81;101684.16;4217769;28;20269;-65
2023/05/08 09:06:35;;;;;;;4.37;1.90;;;;;;;14.26;37.16;101682.97;4244316;28;20599;-65
2023/05/08 09:09:02;;;;;;;3.97;2.00;;;;;;;14.32;36.30;101678.81;4239837;28;21279;-64
2023/05/08 09:11:29;;;;;;;4.87;2.00;;;;;;;14.55;36.29;101679.41;4220489;28;20402;-66
2023/05/08 09:13:57;;;;;;;6.30;2.00;;;;;;;14.35;36.15;101683.13;4225603;28;23540;-63
2023/05/08 09:16:24;;;;;;;4.53;1.80;;;;;;;14.43;35.65;101678.69;4236332;28;20914;-66
2023/05/08 09:18:51;;;;;;;5.47;2.27;;;;;;;14.50;36.64;101678.13;4222043;28;21140;-66
2023/05/08 09:21:18;;;;;;;3.50;2.13;;;;;;;14.46;36.30;101672.09;4212043;28;20311;-67
2023/05/08 09:23:55;;;;;;;3.43;2.00;;;;;;;14.27;35.95;101670.22;4231692;28;21746;-67
2023/05/08 09:26:31;;;;;;;4.67;2.20;;;;;;;13.68;36.19;101680.94;4225523;28;21418;-64
2023/05/08 09:29:16;;;;;;;2.97;1.93;;;;;;;14.38;34.92;101674.69;4217505;28;21520;-64
2023/05/08 09:31:45;;;;;;;4.87;1.97;;;;;;;14.93;34.81;101676.84;4226185;28;20239;-69
2023/05/08 09:34:24;;;;;;;7.13;1.90;;;;;;;14.61;35.61;101666.22;4232043;28;22547;-68
2023/05/08 09:36:50;;;;;;;5.87;1.70;;;;;;;14.61;35.99;101674.41;4240485;28;20231;-67
2023/05/08 09:39:24;;;;;;;4.70;1.80;;;;;;;14.26;36.91;101666.63;4225478;28;20302;-67
2023/05/08 09:42:01;;;;;;;4.93;2.20;;;;;;;14.53;37.88;101672.38;4231408;28;20646;-65
2023/05/08 09:44:28;;;;;;;4.03;2.10;;;;;;;14.70;36.03;101665.38;4238395;28;20326;-67
2023/05/08 09:47:19;;;;;;;2.87;1.70;;;;;;;14.80;35.63;101657.22;4227085;28;20650;-64
2023/05/08 09:49:59;;;;;;;5.93;2.43;;;;;;;15.17;34.83;101664.59;4243130;28;20336;-65
2023/05/08 09:52:27;;;;;;;4.90;1.83;;;;;;;15.48;36.42;101665.22;4226956;28;20242;-65
2023/05/08 09:54:57;;;;;;;8.47;2.33;;;;;;;15.15;35.33;101664.72;4246692;28;20246;-67
2023/05/08 09:57:28;;;;;;;8.50;2.00;;;;;;;14.68;35.81;101665.53;4222856;28;21223;-63
2023/05/08 10:00:11;;;;;;;3.90;1.80;;;;;;;14.43;35.83;101661.47;4224355;28;20281;-66
2023/05/08 10:02:40;;;;;;;4.63;1.73;;;;;;;14.35;36.16;101662.19;4223762;28;20402;-67
2023/05/08 10:05:26;;;;;;;4.57;1.77;;;;;;;14.35;36.31;101650.44;4230053;28;21888;-64
2023/05/08 10:07:53;;;;;;;5.30;1.90;;;;;;;14.07;36.12;101650.28;4231448;28;22006;-65
2023/05/08 10:10:29;;;;;;;2.40;1.83;;;;;;;14.20;35.92;101648.13;4215003;28;20230;-65
2023/05/08 10:12:57;;;;;;;6.23;1.70;;;;;;;14.27;35.20;101653.88;4222333;28;20460;-64
2023/05/08 10:15:27;;;;;;;4.13;1.70;;;;;;;14.47;34.87;101643.00;4228110;28;20304;-64
2023/05/08 10:18:03;;;;;;;7.60;2.03;;;;;;;14.85;34.26;101644.00;4257101;28;20306;-65
2023/05/08 10:20:30;;;;;;;5.67;1.70;;;;;;;14.26;35.70;101639.38;4219977;28;20227;-64
2023/05/08 10:22:57;;;;;;;5.70;2.00;;;;;;;14.27;35.83;101634.81;4242930;28;20326;-66
2023/05/08 10:25:25;;;;;;;5.27;1.93;;;;;;;14.63;37.25;101628.78;4229939;28;23649;-66
2023/05/08 10:27:56;;;;;;;3.70;1.70;;;;;;;15.06;34.20;101646.53;4231751;28;20255;-63
2023/05/08 10:30:25;;;;;;;2.30;1.70;;;;;;;15.27;33.87;101629.94;4226541;28;20235;-65
2023/05/08 10:32:57;;;;;;;3.00;1.47;;;;;;;15.18;33.24;101630.88;4232220;28;20247;-66
2023/05/08 10:35:24;;;;;;;6.20;1.90;;;;;;;15.05;33.31;101637.50;4244810;28;20230;-64
2023/05/08 10:37:51;;;;;;;4.10;1.90;;;;;;;14.76;33.88;101629.38;4242684;28;20682;-66
2023/05/08 10:40:20;;;;;;;2.77;1.50;;;;;;;14.72;33.89;101631.53;4220652;28;20747;-65
2023/05/08 10:42:47;;;;;;;4.90;1.83;;;;;;;15.14;34.26;101638.50;4235131;28;20712;-63
2023/05/08 10:45:14;;;;;;;4.17;1.87;;;;;;;15.05;32.90;101628.47;4234823;28;23625;-65
2023/05/08 10:48:02;;;;;;;3.73;1.80;;;;;;;14.94;33.61;101632.22;4234207;28;20228;-65
2023/05/08 10:50:43;;;;;;;5.57;1.77;;;;;;;14.63;34.69;101634.22;4231763;28;21164;-63
2023/05/08 10:53:15;;;;;;;4.10;2.00;;;;;;;14.91;34.68;101632.50;4241314;28;20242;-65
2023/05/08 10:55:45;;;;;;;4.10;1.70;;;;;;;15.35;34.21;101627.34;4226176;28;20283;-66
2023/05/08 10:58:14;;;;;;;3.43;1.90;;;;;;;15.03;33.35;101633.19;4212529;28;20252;-66
2023/05/08 11:00:56;;;;;;;4.57;2.13;;;;;;;15.36;34.52;101631.78;4235708;28;20654;-65
2023/05/08 11:03:23;;;;;;;3.40;1.93;;;;;;;15.44;32.74;101625.59;4231464;28;22575;-48
2023/05/08 11:05:59;;;;;;;3.83;1.80;;;;;;;15.80;31.01;101628.44;4234107;28;22287;-69
2023/05/08 11:08:27;;;;;;;5.40;1.80;;;;;;;15.78;31.37;101618.69;4220034;28;20238;-68
2023/05/08 11:11:03;;;;;;;6.07;1.80;;;;;;;15.51;31.97;101617.66;4259356;28;20265;-65
2023/05/08 11:13:35;;;;;;;8.10;3.50;;;;;;;15.82;33.34;101620.06;4238125;28;20307;-69
2023/05/08 11:16:02;;;;;;;6.80;2.17;;;;;;;15.59;31.81;101608.72;4255055;28;20307;-62
2023/05/08 11:18:29;;;;;;;3.70;2.07;;;;;;;15.37;32.53;101602.63;4221046;28;20303;-66
2023/05/08 11:21:15;;;;;;;5.40;2.23;;;;;;;15.46;33.13;101600.88;4217659;28;25528;-64
2023/05/08 11:23:41;;;;;;;4.97;1.87;;;;;;;15.30;33.15;101598.78;4205400;28;20280;-63
2023/05/08 11:26:12;;;;;;;5.50;2.07;;;;;;;15.18;32.29;101598.13;4197711;28;20241;-63
2023/05/08 11:28:55;;;;;;;4.57;1.90;;;;;;;15.11;33.17;101596.97;4207749;28;20685;-65
2023/05/08 11:31:22;;;;;;;3.07;2.00;;;;;;;15.36;31.76;101600.94;4216319;28;21164;-65
2023/05/08 11:33:49;;;;;;;5.60;2.00;;;;;;;15.50;32.23;101586.78;4204990;28;20248;-64
2023/05/08 11:36:21;;;;;;;5.87;1.73;;;;;;;15.50;31.63;101596.81;4197733;28;21146;-67
2023/05/08 11:39:14;;;;;;;5.67;2.07;;;;;;;15.49;31.19;101595.97;4197806;28;22284;-64